createdAt,value
2018-05-16T00:01:42.290Z,12.20
2018-05-16T00:04:10.624Z,13.13
2018-05-16T00:06:38.982Z,12.73
2018-05-16T00:09:07.330Z,13.70
2018-05-16T00:11:35.670Z,13.60
2018-05-16T00:14:04.104Z,12.70
2018-05-16T00:16:33.230Z,13.97
2018-05-16T00:19:01.577Z,12.57
2018-05-16T00:21:30.714Z,13.83
2018-05-16T00:23:59.044Z,13.43
2018-05-16T00:26:27.343Z,13.27
2018-05-16T00:28:56.455Z,14.30
2018-05-16T00:31:24.768Z,14.07
2018-05-16T00:33:53.159Z,13.87
2018-05-16T00:36:21.864Z,14.93
2018-05-16T00:38:50.223Z,14.80
2018-05-16T00:41:18.565Z,14.47
2018-05-16T00:43:46.927Z,14.50
2018-05-16T00:46:15.272Z,14.83
2018-05-16T00:48:43.652Z,15.53
2018-05-16T00:51:29.694Z,15.23
2018-05-16T00:53:58.099Z,15.80
2018-05-16T00:56:26.433Z,15.30
2018-05-16T00:58:55.607Z,14.73
2018-05-16T01:01:24.012Z,15.33
2018-05-16T01:03:53.172Z,16.87
2018-05-16T01:06:21.569Z,16.10
2018-05-16T01:08:49.928Z,16.90
2018-05-16T01:11:18.243Z,17.30
2018-05-16T01:13:47.048Z,17.47
2018-05-16T01:16:15.386Z,17.10
2018-05-16T01:18:43.759Z,17.53
2018-05-16T01:21:12.178Z,17.10
2018-05-16T01:23:41.301Z,17.80
2018-05-16T01:26:09.785Z,17.47
2018-05-16T01:28:38.934Z,17.30
2018-05-16T01:31:08.126Z,16.13
2018-05-16T01:33:36.504Z,18.20
2018-05-16T01:36:05.150Z,17.50
2018-05-16T01:38:33.530Z,17.60
2018-05-16T01:41:01.946Z,18.03
2018-05-16T01:43:30.455Z,16.80
2018-05-16T01:45:59.751Z,17.80
2018-05-16T01:48:28.890Z,17.23
2018-05-16T01:50:57.354Z,16.97
2018-05-16T01:53:25.702Z,17.07
2018-05-16T01:55:54.037Z,15.90
2018-05-16T01:58:22.735Z,14.77
2018-05-16T02:00:51.153Z,15.63
2018-05-16T02:03:19.493Z,15.10
2018-05-16T02:05:47.892Z,15.73
2018-05-16T02:08:16.339Z,15.97
2018-05-16T02:10:44.697Z,14.97
2018-05-16T02:13:13.123Z,15.67
2018-05-16T02:15:41.513Z,15.57
2018-05-16T02:18:09.920Z,16.40
2018-05-16T02:20:38.481Z,15.73
2018-05-16T02:23:06.842Z,16.70
2018-05-16T02:25:35.235Z,15.20
2018-05-16T02:28:03.621Z,16.17
2018-05-16T02:30:31.964Z,15.47
2018-05-16T02:33:00.323Z,15.97
2018-05-16T02:35:28.701Z,14.47
2018-05-16T02:37:57.049Z,16.80
2018-05-16T02:40:26.309Z,16.53
2018-05-16T02:42:55.033Z,15.90
2018-05-16T02:45:23.435Z,15.43
2018-05-16T02:47:51.759Z,17.40
2018-05-16T02:50:20.135Z,16.07
2018-05-16T02:52:48.549Z,15.80
2018-05-16T02:55:16.921Z,16.77
2018-05-16T02:57:45.327Z,17.50
2018-05-16T03:00:14.441Z,16.00
2018-05-16T03:02:42.777Z,17.23
2018-05-16T03:05:11.338Z,16.33
2018-05-16T03:07:39.724Z,16.50
2018-05-16T03:10:08.123Z,16.80
2018-05-16T03:12:36.824Z,16.40
2018-05-16T03:15:06.003Z,17.27
2018-05-16T03:17:34.383Z,17.37
2018-05-16T03:20:02.866Z,18.10
2018-05-16T03:22:31.274Z,16.23
2018-05-16T03:24:59.686Z,17.33
2018-05-16T03:27:28.932Z,17.13
2018-05-16T03:29:58.358Z,16.87
2018-05-16T03:32:27.512Z,17.80
2018-05-16T03:34:55.912Z,17.30
2018-05-16T03:37:24.293Z,17.40
2018-05-16T03:39:52.750Z,18.30
2018-05-16T03:42:21.149Z,17.97
2018-05-16T03:44:49.509Z,17.87
2018-05-16T03:47:17.904Z,18.67
2018-05-16T03:49:46.608Z,17.93
2018-05-16T03:52:15.708Z,18.90
2018-05-16T03:54:44.194Z,17.57
2018-05-16T04:00:41.245Z,20.57
2018-05-16T04:03:27.324Z,19.57
2018-05-16T04:05:55.796Z,19.77
2018-05-16T04:08:24.919Z,19.90
2018-05-16T04:10:53.708Z,20.17
2018-05-16T04:13:22.125Z,20.87
2018-05-16T04:15:50.536Z,20.37
2018-05-16T04:18:18.956Z,20.40
2018-05-16T04:20:48.148Z,20.60
2018-05-16T04:23:16.514Z,20.90
2018-05-16T04:25:44.986Z,21.00
2018-05-16T04:28:13.554Z,20.83
2018-05-16T04:30:41.983Z,21.70
2018-05-16T04:33:10.997Z,20.53
2018-05-16T04:35:40.183Z,22.13
2018-05-16T04:38:08.613Z,23.30
2018-05-16T04:40:37.097Z,20.77
2018-05-16T04:43:05.512Z,22.07
2018-05-16T04:45:33.992Z,20.70
2018-05-16T04:48:02.372Z,22.20
2018-05-16T04:50:30.751Z,20.87
2018-05-16T04:52:59.179Z,21.03
2018-05-16T04:55:28.022Z,21.40
2018-05-16T04:57:56.407Z,21.77
2018-05-16T05:00:24.807Z,19.57
2018-05-16T05:02:53.999Z,20.80
2018-05-16T05:05:23.262Z,19.70
2018-05-16T05:07:51.639Z,20.93
2018-05-16T05:10:20.124Z,20.83
2018-05-16T05:12:48.459Z,20.20
2018-05-16T05:15:16.809Z,20.43
2018-05-16T05:17:46.211Z,21.30
2018-05-16T05:20:15.389Z,20.57
2018-05-16T05:22:44.693Z,22.10
2018-05-16T05:25:13.088Z,21.47
2018-05-16T05:27:41.395Z,20.70
2018-05-16T05:30:09.827Z,18.57
2018-05-16T05:32:38.491Z,19.53
2018-05-16T05:35:06.979Z,18.87
2018-05-16T05:37:35.522Z,18.67
2018-05-16T05:40:04.107Z,19.30
2018-05-16T05:42:33.268Z,19.93
2018-05-16T05:45:02.250Z,19.20
2018-05-16T05:47:30.758Z,19.17
2018-05-16T05:49:59.150Z,18.63
2018-05-16T05:52:27.455Z,17.17
2018-05-16T05:54:55.818Z,18.10
2018-05-16T05:57:24.963Z,17.50
2018-05-16T05:59:53.311Z,17.73
2018-05-16T06:02:21.775Z,16.13
2018-05-16T06:04:50.130Z,16.73
2018-05-16T06:07:19.307Z,18.53
2018-05-16T06:09:47.678Z,17.40
2018-05-16T06:12:16.013Z,17.20
2018-05-16T06:14:45.119Z,24.10
2018-05-16T06:17:13.513Z,18.43
2018-05-16T06:19:41.947Z,16.57
2018-05-16T06:22:10.287Z,18.07
2018-05-16T06:24:39.023Z,16.50
2018-05-16T06:27:08.177Z,18.30
2018-05-16T06:29:37.235Z,17.87
2018-05-16T06:32:05.577Z,16.90
2018-05-16T06:34:33.927Z,17.37
2018-05-16T06:37:03.246Z,17.67
2018-05-16T06:39:31.687Z,18.30
2018-05-16T06:41:59.970Z,16.80
2018-05-16T06:44:28.280Z,17.00
2018-05-16T06:46:57.319Z,15.57
2018-05-16T06:49:25.747Z,16.03
2018-05-16T06:51:54.090Z,15.90
2018-05-16T06:54:22.469Z,16.67
2018-05-16T06:56:50.819Z,15.90
2018-05-16T06:59:19.165Z,16.20
2018-05-16T07:01:47.514Z,16.30
2018-05-16T07:04:15.820Z,16.43
2018-05-16T07:06:44.132Z,15.93
2018-05-16T07:09:12.866Z,14.43
2018-05-16T07:11:41.191Z,14.80
2018-05-16T07:14:09.513Z,14.00
2018-05-16T07:16:37.895Z,14.80
2018-05-16T07:19:06.231Z,13.70
2018-05-16T07:21:34.587Z,13.93
2018-05-16T07:24:02.950Z,13.90
2018-05-16T07:26:31.312Z,12.60
2018-05-16T07:28:59.647Z,13.50
2018-05-16T07:31:28.355Z,13.73
2018-05-16T07:33:56.669Z,12.73
2018-05-16T07:36:24.981Z,13.23
2018-05-16T07:38:53.330Z,12.97
2018-05-16T07:41:21.668Z,13.30
2018-05-16T07:43:49.978Z,13.10
2018-05-16T07:46:18.333Z,12.83
2018-05-16T07:48:47.825Z,11.90
2018-05-16T07:51:16.980Z,13.10
2018-05-16T07:53:45.543Z,11.33
2018-05-16T07:56:13.898Z,12.50
2018-05-16T07:58:42.251Z,11.30
2018-05-16T08:01:10.783Z,11.77
2018-05-16T08:03:39.095Z,11.43
2018-05-16T08:06:07.435Z,11.20
2018-05-16T08:08:35.822Z,10.97
2018-05-16T08:11:04.130Z,11.30
2018-05-16T08:13:33.258Z,11.50
2018-05-16T08:16:02.587Z,11.23
2018-05-16T08:18:30.936Z,10.70
2018-05-16T08:21:00.019Z,10.43
2018-05-16T08:23:28.367Z,10.97
2018-05-16T08:25:56.676Z,10.70
2018-05-16T08:28:24.994Z,10.90
2018-05-16T08:30:53.374Z,9.87
2018-05-16T08:33:21.693Z,10.40
2018-05-16T08:35:50.038Z,11.50
2018-05-16T08:38:18.509Z,9.80
2018-05-16T08:40:46.839Z,9.70
2018-05-16T08:43:15.156Z,9.90
2018-05-16T08:45:43.536Z,10.17
2018-05-16T08:48:12.761Z,9.80
2018-05-16T08:50:41.110Z,36.97
2018-05-16T08:53:10.248Z,9.10
2018-05-16T08:55:38.822Z,9.17
2018-05-16T08:58:07.164Z,8.50
2018-05-16T09:00:36.772Z,8.73
2018-05-16T09:03:05.096Z,8.57
2018-05-16T09:05:33.461Z,7.77
2018-05-16T09:08:01.823Z,7.80
2018-05-16T09:10:30.184Z,8.30
2018-05-16T09:12:59.279Z,8.13
2018-05-16T09:15:28.419Z,7.20
2018-05-16T09:17:56.771Z,6.47
2018-05-16T09:20:25.107Z,8.50
2018-05-16T09:22:53.728Z,7.40
2018-05-16T09:25:22.041Z,7.60
2018-05-16T09:27:50.382Z,7.47
2018-05-16T09:30:19.505Z,8.37
2018-05-16T09:32:47.860Z,7.13
2018-05-16T09:35:16.196Z,7.47
2018-05-16T09:37:44.569Z,6.77
2018-05-16T09:40:12.934Z,6.60
2018-05-16T09:42:41.306Z,7.40
2018-05-16T09:45:09.740Z,7.10
2018-05-16T09:47:38.121Z,7.43
2018-05-16T09:50:06.474Z,7.30
2018-05-16T09:52:34.837Z,6.47
2018-05-16T09:55:03.174Z,6.57
2018-05-16T09:57:31.517Z,6.70
2018-05-16T09:59:59.862Z,6.73
2018-05-16T10:02:28.239Z,6.87
2018-05-16T10:04:56.548Z,7.10
2018-05-16T10:07:25.241Z,6.67
2018-05-16T10:09:53.613Z,7.20
2018-05-16T10:12:21.928Z,6.53
2018-05-16T10:14:50.277Z,7.10
2018-05-16T10:17:18.625Z,7.70
2018-05-16T10:19:46.998Z,6.70
2018-05-16T10:22:15.422Z,6.67
2018-05-16T10:24:43.796Z,6.60
2018-05-16T10:27:12.152Z,7.50
2018-05-16T10:29:40.892Z,6.63
2018-05-16T10:32:09.247Z,7.37
2018-05-16T10:34:37.704Z,7.27
2018-05-16T10:37:12.664Z,7.23
2018-05-16T10:39:41.061Z,6.63
2018-05-16T10:42:10.185Z,6.60
2018-05-16T10:44:38.540Z,6.13
2018-05-16T10:47:06.871Z,7.40
2018-05-16T10:49:35.204Z,6.83
2018-05-16T10:52:04.609Z,6.70
2018-05-16T10:54:33.748Z,7.03
2018-05-16T10:57:02.096Z,7.10
2018-05-16T10:59:31.216Z,7.00
2018-05-16T11:01:59.562Z,6.87
2018-05-16T11:04:28.650Z,7.70
2018-05-16T11:06:56.994Z,7.23
2018-05-16T11:09:25.320Z,7.43
2018-05-16T11:11:54.411Z,6.97
2018-05-16T11:14:23.204Z,6.40
2018-05-16T11:16:51.524Z,6.40
2018-05-16T11:19:19.838Z,6.80
2018-05-16T11:21:48.233Z,7.03
2018-05-16T11:24:16.573Z,6.27
2018-05-16T11:26:44.912Z,7.17
2018-05-16T11:29:13.252Z,5.97
2018-05-16T11:31:41.613Z,6.37
2018-05-16T11:34:09.985Z,6.40
2018-05-16T11:36:38.510Z,5.50
2018-05-16T11:39:07.584Z,6.30
2018-05-16T11:41:35.924Z,6.47
2018-05-16T11:44:04.283Z,5.53
2018-05-16T11:46:32.632Z,5.77
2018-05-16T11:49:00.933Z,5.30
2018-05-16T11:51:30.092Z,6.77
2018-05-16T11:53:58.462Z,6.00
2018-05-16T11:56:26.796Z,5.50
2018-05-16T11:58:55.517Z,5.57
2018-05-16T12:01:23.845Z,5.60
2018-05-16T12:03:52.956Z,6.27
2018-05-16T12:06:21.355Z,5.63
2018-05-16T12:08:49.673Z,5.70
2018-05-16T12:11:18.080Z,5.37
2018-05-16T12:13:46.477Z,5.40
2018-05-16T12:16:14.797Z,5.40
2018-05-16T12:18:43.135Z,5.50
2018-05-16T12:21:12.209Z,6.20
2018-05-16T12:23:41.504Z,5.03
2018-05-16T12:26:10.618Z,5.10
2018-05-16T12:28:38.982Z,5.53
2018-05-16T12:31:08.100Z,4.83
2018-05-16T12:33:36.452Z,5.60
2018-05-16T12:36:04.830Z,5.50
2018-05-16T12:38:33.161Z,5.80
2018-05-16T12:41:01.508Z,5.70
2018-05-16T12:43:32.958Z,5.17
2018-05-16T12:46:02.089Z,5.17
2018-05-16T12:48:30.419Z,6.53
2018-05-16T12:50:58.811Z,5.40
2018-05-16T12:53:27.906Z,5.57
2018-05-16T12:55:57.009Z,5.80
2018-05-16T12:58:26.138Z,5.70
2018-05-16T13:00:54.463Z,5.50
2018-05-16T13:03:22.794Z,5.60
2018-05-16T13:05:51.539Z,5.97
2018-05-16T13:08:20.644Z,5.73
2018-05-16T13:10:49.747Z,5.20
2018-05-16T13:13:18.108Z,5.20
2018-05-16T13:15:47.217Z,5.33
2018-05-16T13:18:15.532Z,5.47
2018-05-16T13:20:43.872Z,5.00
2018-05-16T13:23:12.523Z,5.17
2018-05-16T13:25:40.839Z,5.33
2018-05-16T13:31:19.508Z,5.30
2018-05-16T13:33:47.933Z,5.30
2018-05-16T13:36:16.313Z,5.23
2018-05-16T13:38:44.597Z,4.37
2018-05-16T13:41:12.964Z,4.53
2018-05-16T13:43:41.302Z,5.07
2018-05-16T13:46:09.667Z,5.00
2018-05-16T13:48:38.435Z,4.23
2018-05-16T13:51:06.763Z,4.97
2018-05-16T13:53:35.193Z,5.30
2018-05-16T13:56:03.527Z,5.30
2018-05-16T13:58:31.866Z,5.13
2018-05-16T14:01:00.176Z,5.20
2018-05-16T14:03:28.565Z,5.27
2018-05-16T14:05:56.888Z,5.20
2018-05-16T14:08:25.972Z,5.40
2018-05-16T14:10:54.418Z,5.00
2018-05-16T14:15:57.202Z,4.80
2018-05-16T14:18:25.553Z,4.73
2018-05-16T14:23:56.810Z,5.77
2018-05-16T14:26:25.240Z,5.27
2018-05-16T14:28:53.588Z,5.47
2018-05-16T14:31:22.694Z,5.40
2018-05-16T14:34:04.276Z,5.77
2018-05-16T14:36:36.328Z,5.63
2018-05-16T14:39:05.560Z,5.77
2018-05-16T14:41:33.897Z,5.80
2018-05-16T14:44:02.253Z,6.00
2018-05-16T14:46:30.729Z,5.70
2018-05-16T14:48:59.072Z,5.97
2018-05-16T14:51:27.417Z,5.60
2018-05-16T14:53:55.819Z,6.70
2018-05-16T14:56:24.143Z,6.10
2018-05-16T14:58:52.479Z,6.43
2018-05-16T15:01:20.850Z,5.70
2018-05-16T15:03:49.956Z,5.90
2018-05-16T15:06:18.270Z,6.60
2018-05-16T15:08:47.824Z,6.07
2018-05-16T15:11:16.141Z,5.83
2018-05-16T15:13:45.232Z,6.03
2018-05-16T15:16:13.576Z,6.23
2018-05-16T15:18:42.645Z,6.80
2018-05-16T15:21:10.999Z,5.30
2018-05-16T15:23:39.392Z,5.70
2018-05-16T15:26:07.715Z,5.90
2018-05-16T15:28:36.820Z,5.90
2018-05-16T15:31:05.421Z,6.37
2018-05-16T15:33:33.758Z,5.87
2018-05-16T15:36:02.828Z,6.20
2018-05-16T15:38:31.240Z,6.00
2018-05-16T15:40:59.524Z,6.03
2018-05-16T15:43:28.633Z,6.10
2018-05-16T15:45:57.712Z,5.57
2018-05-16T15:48:26.822Z,5.87
2018-05-16T15:50:55.130Z,5.60
2018-05-16T15:53:23.971Z,6.23
2018-05-16T15:55:53.058Z,6.13
2018-05-16T15:58:21.400Z,5.50
2018-05-16T16:00:49.778Z,6.43
2018-05-16T16:03:18.107Z,5.60
2018-05-16T16:05:46.472Z,6.10
2018-05-16T16:08:14.978Z,5.97
2018-05-16T16:10:43.259Z,5.40
2018-05-16T16:13:12.352Z,6.43
2018-05-16T16:15:41.721Z,6.40
2018-05-16T16:18:10.046Z,7.07
2018-05-16T16:20:38.390Z,6.80
2018-05-16T16:23:06.756Z,6.30
2018-05-16T16:25:35.106Z,6.53
2018-05-16T16:28:03.425Z,6.50
2018-05-16T16:30:31.790Z,6.20
2018-05-16T16:33:00.100Z,6.37
2018-05-16T16:35:28.448Z,7.00
2018-05-16T16:37:56.867Z,6.53
2018-05-16T16:40:25.203Z,6.63
2018-05-16T16:42:53.579Z,6.53
2018-05-16T16:45:21.971Z,6.77
2018-05-16T16:47:50.312Z,5.57
2018-05-16T16:50:18.682Z,6.70
2018-05-16T16:52:47.033Z,6.33
2018-05-16T16:55:16.155Z,6.63
2018-05-16T16:57:44.481Z,6.90
2018-05-16T17:00:13.389Z,6.47
2018-05-16T17:02:41.712Z,5.90
2018-05-16T17:05:10.200Z,11.53
2018-05-16T17:07:38.588Z,6.13
2018-05-16T17:10:06.945Z,6.90
2018-05-16T17:12:35.268Z,6.33
2018-05-16T17:15:04.410Z,6.60
2018-05-16T17:17:32.730Z,6.50
2018-05-16T17:20:01.057Z,6.23
2018-05-16T17:22:29.743Z,6.27
2018-05-16T17:24:58.053Z,6.60
2018-05-16T17:27:26.371Z,6.50
2018-05-16T17:29:54.749Z,7.37
2018-05-16T17:32:23.089Z,7.50
2018-05-16T17:34:51.443Z,7.20
2018-05-16T17:37:20.575Z,7.33
2018-05-16T17:39:48.899Z,8.00
2018-05-16T17:42:17.264Z,6.90
2018-05-16T17:44:45.963Z,7.23
2018-05-16T17:47:15.065Z,7.23
2018-05-16T17:49:44.187Z,7.30
2018-05-16T17:52:12.549Z,7.23
2018-05-16T17:54:41.628Z,7.20
2018-05-16T17:57:09.940Z,6.47
2018-05-16T17:59:38.289Z,7.33
2018-05-16T18:02:07.420Z,7.80
2018-05-16T18:04:35.791Z,6.97
2018-05-16T18:07:04.347Z,8.47
2018-05-16T18:09:33.486Z,7.60
2018-05-16T18:12:01.865Z,7.37
2018-05-16T18:18:02.194Z,7.40
2018-05-16T18:20:30.574Z,8.57
2018-05-16T18:22:58.928Z,8.00
2018-05-16T18:25:27.271Z,7.90
2018-05-16T18:27:56.235Z,8.70
2018-05-16T18:30:24.562Z,9.00
2018-05-16T18:32:52.871Z,8.07
2018-05-16T18:35:21.976Z,8.87
2018-05-16T18:37:51.056Z,8.00
2018-05-16T18:40:19.400Z,7.00
2018-05-16T18:42:47.746Z,8.00
2018-05-16T18:45:16.078Z,7.43
2018-05-16T18:47:44.415Z,6.67
2018-05-16T18:50:12.862Z,7.63
2018-05-16T18:52:42.017Z,7.07
2018-05-16T18:55:10.343Z,7.50
2018-05-16T18:57:39.465Z,7.73
2018-05-16T19:00:07.794Z,7.70
2018-05-16T19:02:36.107Z,6.80
2018-05-16T19:05:04.516Z,6.80
2018-05-16T19:07:32.949Z,8.17
2018-05-16T19:10:01.319Z,7.00
2018-05-16T19:12:29.869Z,6.67
2018-05-16T19:14:58.220Z,6.50
2018-05-16T19:17:26.552Z,6.47
2018-05-16T19:19:54.929Z,7.47
2018-05-16T19:22:23.285Z,6.60
2018-05-16T19:24:51.624Z,6.90
2018-05-16T19:27:20.005Z,6.50
2018-05-16T19:29:48.351Z,6.97
2018-05-16T19:32:16.676Z,6.67
2018-05-16T19:34:45.426Z,6.43
2018-05-16T19:37:13.757Z,6.70
2018-05-16T19:39:42.110Z,6.97
2018-05-16T19:42:10.458Z,6.30
2018-05-16T19:44:38.790Z,6.27
2018-05-16T19:47:07.129Z,7.40
2018-05-16T19:49:35.518Z,6.10
2018-05-16T19:52:04.274Z,7.40
2018-05-16T19:54:32.579Z,6.63
2018-05-16T19:57:02.180Z,7.20
2018-05-16T19:59:30.541Z,7.30
2018-05-16T20:01:58.904Z,7.07
2018-05-16T20:04:27.245Z,7.03
2018-05-16T20:06:55.594Z,8.27
2018-05-16T20:09:24.669Z,8.50
2018-05-16T20:11:53.048Z,7.00
2018-05-16T20:14:21.397Z,8.00
2018-05-16T20:16:49.790Z,8.50
2018-05-16T20:19:18.366Z,7.83
2018-05-16T20:21:46.700Z,8.33
2018-05-16T20:24:15.776Z,8.80
2018-05-16T20:26:44.136Z,9.03
2018-05-16T20:29:12.487Z,9.70
2018-05-16T20:31:40.838Z,9.70
2018-05-16T20:34:09.975Z,9.00
2018-05-16T20:36:38.310Z,10.80
2018-05-16T20:39:06.639Z,11.03
2018-05-16T20:41:35.111Z,12.40
2018-05-16T20:44:03.493Z,10.60
2018-05-16T20:46:31.850Z,11.20
2018-05-16T20:49:00.207Z,10.50
2018-05-16T20:51:30.091Z,10.83
2018-05-16T20:53:58.594Z,10.13
2018-05-16T20:56:27.694Z,11.47
2018-05-16T20:58:56.851Z,10.13
2018-05-16T21:01:25.147Z,10.90
2018-05-16T21:03:53.639Z,11.87
2018-05-16T21:06:21.992Z,11.47
2018-05-16T21:08:50.332Z,10.40
2018-05-16T21:11:18.773Z,11.53
2018-05-16T21:13:47.038Z,9.60
2018-05-16T21:16:15.360Z,9.30
2018-05-16T21:18:43.737Z,10.30
2018-05-16T21:21:12.102Z,9.57
2018-05-16T21:23:41.224Z,9.60
2018-05-16T21:26:09.657Z,8.53
2018-05-16T21:28:38.016Z,9.03
2018-05-16T21:31:06.346Z,8.40
2018-05-16T21:33:34.715Z,9.70
2018-05-16T21:36:03.821Z,8.73
2018-05-16T21:38:33.545Z,9.70
2018-05-16T21:41:01.977Z,9.97
2018-05-16T21:43:30.286Z,8.70
2018-05-16T21:45:59.401Z,9.13
2018-05-16T21:48:27.929Z,9.77
2018-05-16T21:50:56.268Z,8.30
2018-05-16T21:53:24.577Z,8.47
2018-05-16T21:55:52.965Z,8.63
2018-05-16T21:58:21.314Z,7.90
2018-05-16T22:00:49.625Z,8.50
2018-05-16T22:03:17.981Z,7.93
2018-05-16T22:05:46.322Z,8.00
2018-05-16T22:08:15.407Z,9.17
2018-05-16T22:10:44.295Z,8.27
2018-05-16T22:13:12.618Z,9.03
2018-05-16T22:15:40.949Z,8.57
2018-05-16T22:18:09.295Z,8.00
2018-05-16T22:20:37.635Z,7.90
2018-05-16T22:23:05.953Z,9.87
2018-05-16T22:25:34.279Z,7.93
2018-05-16T22:28:03.995Z,8.13
2018-05-16T22:30:38.914Z,7.50
2018-05-16T22:33:13.529Z,9.40
2018-05-16T22:35:47.431Z,8.80
2018-05-16T22:38:21.103Z,6.63
2018-05-16T22:40:54.989Z,8.00
2018-05-16T22:43:23.319Z,7.23
2018-05-16T22:46:02.996Z,7.33
2018-05-16T22:48:32.216Z,8.03
2018-05-16T22:51:00.811Z,7.23
2018-05-16T22:53:29.154Z,8.67
2018-05-16T22:55:58.263Z,7.00
2018-05-16T22:58:26.608Z,7.80
2018-05-16T23:00:55.157Z,8.63
2018-05-16T23:03:23.520Z,9.33
2018-05-16T23:05:51.932Z,7.47
2018-05-16T23:08:20.648Z,7.30
2018-05-16T23:10:49.264Z,7.00
2018-05-16T23:13:17.604Z,8.37
2018-05-16T23:15:45.970Z,7.93
2018-05-16T23:18:14.333Z,7.20
2018-05-16T23:20:42.694Z,7.40
2018-05-16T23:23:11.231Z,8.10
2018-05-16T23:25:39.536Z,6.10
2018-05-16T23:28:07.934Z,7.10
2018-05-16T23:30:36.368Z,6.73
2018-05-16T23:33:04.676Z,7.37
2018-05-16T23:35:34.125Z,7.83
2018-05-16T23:38:02.488Z,8.53
2018-05-16T23:40:30.827Z,7.37
2018-05-16T23:42:59.155Z,6.60
2018-05-16T23:45:27.518Z,7.00
2018-05-16T23:47:55.832Z,6.10
2018-05-16T23:50:24.147Z,7.43
2018-05-16T23:52:53.210Z,6.37
2018-05-16T23:55:21.541Z,6.97
2018-05-16T23:57:49.867Z,7.03
